sensor_id;sensor_type;location;lat;lon;timestamp;P1;durP1;ratioP1;P2;durP2;ratioP2
7027;SDS011;3555;53.248;10.336;2022-11-25T00:00:47;92.13;;;10.77;;
7027;SDS011;3555;53.248;10.336;2022-11-25T00:03:14;24.17;;;9.40;;
7027;SDS011;3555;53.248;10.336;2022-11-25T00:05:41;44.30;;;10.67;;
7027;SDS011;3555;53.248;10.336;2022-11-25T00:08:08;78.63;;;11.10;;
7027;SDS011;3555;53.248;10.336;2022-11-25T00:10:35;72.57;;;11.30;;
7027;SDS011;3555;53.248;10.336;2022-11-25T00:13:02;94.93;;;11.53;;
7027;SDS011;3555;53.248;10.336;2022-11-25T00:15:30;184.13;;;13.63;;
7027;SDS011;3555;53.248;10.336;2022-11-25T00:17:58;46.93;;;9.87;;
7027;SDS011;3555;53.248;10.336;2022-11-25T00:20:25;84.40;;;11.53;;
7027;SDS011;3555;53.248;10.336;2022-11-25T00:22:52;42.97;;;10.00;;
7027;SDS011;3555;53.248;10.336;2022-11-25T00:25:19;62.73;;;10.07;;
7027;SDS011;3555;53.248;10.336;2022-11-25T00:27:46;74.53;;;10.27;;
7027;SDS011;3555;53.248;10.336;2022-11-25T00:30:13;59.10;;;10.77;;
7027;SDS011;3555;53.248;10.336;2022-11-25T00:32:41;41.70;;;11.07;;
7027;SDS011;3555;53.248;10.336;2022-11-25T00:35:08;20.30;;;10.07;;
7027;SDS011;3555;53.248;10.336;2022-11-25T00:37:35;16.80;;;10.23;;
7027;SDS011;3555;53.248;10.336;2022-11-25T00:40:02;29.10;;;10.50;;
7027;SDS011;3555;53.248;10.336;2022-11-25T00:42:30;26.07;;;9.87;;
7027;SDS011;3555;53.248;10.336;2022-11-25T00:45:14;16.33;;;10.40;;
7027;SDS011;3555;53.248;10.336;2022-11-25T00:47:42;18.40;;;10.83;;
7027;SDS011;3555;53.248;10.336;2022-11-25T00:50:09;15.80;;;9.97;;
7027;SDS011;3555;53.248;10.336;2022-11-25T00:52:36;19.37;;;11.23;;
7027;SDS011;3555;53.248;10.336;2022-11-25T00:55:03;16.50;;;10.73;;
7027;SDS011;3555;53.248;10.336;2022-11-25T00:57:30;30.80;;;10.70;;
7027;SDS011;3555;53.248;10.336;2022-11-25T00:59:57;19.33;;;10.80;;
7027;SDS011;3555;53.248;10.336;2022-11-25T01:02:24;17.57;;;10.97;;
7027;SDS011;3555;53.248;10.336;2022-11-25T01:04:52;26.40;;;11.37;;
7027;SDS011;3555;53.248;10.336;2022-11-25T01:07:19;61.77;;;13.77;;
7027;SDS011;3555;53.248;10.336;2022-11-25T01:09:46;65.83;;;12.93;;
7027;SDS011;3555;53.248;10.336;2022-11-25T01:12:14;68.50;;;13.47;;
7027;SDS011;3555;53.248;10.336;2022-11-25T01:14:41;72.90;;;13.27;;
7027;SDS011;3555;53.248;10.336;2022-11-25T01:17:08;118.33;;;15.43;;
7027;SDS011;3555;53.248;10.336;2022-11-25T01:19:35;20.43;;;12.70;;
7027;SDS011;3555;53.248;10.336;2022-11-25T01:22:05;24.53;;;12.10;;
7027;SDS011;3555;53.248;10.336;2022-11-25T01:24:32;22.53;;;10.80;;
7027;SDS011;3555;53.248;10.336;2022-11-25T01:27:00;79.73;;;13.93;;
7027;SDS011;3555;53.248;10.336;2022-11-25T01:29:27;19.93;;;10.30;;
7027;SDS011;3555;53.248;10.336;2022-11-25T01:31:54;27.23;;;9.87;;
7027;SDS011;3555;53.248;10.336;2022-11-25T01:34:22;18.60;;;10.40;;
7027;SDS011;3555;53.248;10.336;2022-11-25T01:36:50;17.73;;;9.10;;
7027;SDS011;3555;53.248;10.336;2022-11-25T01:39:19;35.90;;;10.53;;
7027;SDS011;3555;53.248;10.336;2022-11-25T01:41:47;18.07;;;10.87;;
7027;SDS011;3555;53.248;10.336;2022-11-25T01:44:15;37.13;;;12.23;;
7027;SDS011;3555;53.248;10.336;2022-11-25T01:46:48;20.33;;;11.40;;
7027;SDS011;3555;53.248;10.336;2022-11-25T01:49:20;19.77;;;12.67;;
7027;SDS011;3555;53.248;10.336;2022-11-25T01:51:52;25.40;;;11.53;;
7027;SDS011;3555;53.248;10.336;2022-11-25T01:54:25;22.67;;;12.33;;
7027;SDS011;3555;53.248;10.336;2022-11-25T01:56:56;18.50;;;12.20;;
7027;SDS011;3555;53.248;10.336;2022-11-25T01:59:27;34.37;;;12.97;;
7027;SDS011;3555;53.248;10.336;2022-11-25T02:01:57;30.13;;;12.73;;
7027;SDS011;3555;53.248;10.336;2022-11-25T02:04:24;30.10;;;13.30;;
7027;SDS011;3555;53.248;10.336;2022-11-25T02:06:58;28.23;;;12.97;;
7027;SDS011;3555;53.248;10.336;2022-11-25T02:09:31;25.60;;;14.10;;
7027;SDS011;3555;53.248;10.336;2022-11-25T02:12:00;31.03;;;14.80;;
7027;SDS011;3555;53.248;10.336;2022-11-25T02:14:28;43.53;;;16.17;;
7027;SDS011;3555;53.248;10.336;2022-11-25T02:16:55;54.23;;;15.90;;
7027;SDS011;3555;53.248;10.336;2022-11-25T02:19:27;51.93;;;15.43;;
7027;SDS011;3555;53.248;10.336;2022-11-25T02:22:05;46.03;;;15.93;;
7027;SDS011;3555;53.248;10.336;2022-11-25T02:24:39;95.63;;;16.17;;
7027;SDS011;3555;53.248;10.336;2022-11-25T02:27:11;117.80;;;18.53;;
7027;SDS011;3555;53.248;10.336;2022-11-25T02:29:38;74.03;;;15.67;;
7027;SDS011;3555;53.248;10.336;2022-11-25T02:32:07;71.77;;;16.60;;
7027;SDS011;3555;53.248;10.336;2022-11-25T02:34:34;24.80;;;16.17;;
7027;SDS011;3555;53.248;10.336;2022-11-25T02:37:01;33.33;;;16.07;;
7027;SDS011;3555;53.248;10.336;2022-11-25T02:39:27;28.10;;;15.63;;
7027;SDS011;3555;53.248;10.336;2022-11-25T02:41:55;26.90;;;16.60;;
7027;SDS011;3555;53.248;10.336;2022-11-25T02:44:26;32.10;;;16.97;;
7027;SDS011;3555;53.248;10.336;2022-11-25T02:46:53;30.67;;;16.90;;
7027;SDS011;3555;53.248;10.336;2022-11-25T02:49:20;28.57;;;16.67;;
7027;SDS011;3555;53.248;10.336;2022-11-25T02:51:47;28.57;;;16.33;;
7027;SDS011;3555;53.248;10.336;2022-11-25T02:54:14;25.70;;;15.30;;
7027;SDS011;3555;53.248;10.336;2022-11-25T02:56:41;29.43;;;16.57;;
7027;SDS011;3555;53.248;10.336;2022-11-25T02:59:08;23.03;;;14.53;;
7027;SDS011;3555;53.248;10.336;2022-11-25T03:01:37;25.67;;;15.63;;
7027;SDS011;3555;53.248;10.336;2022-11-25T03:04:05;31.43;;;15.17;;
7027;SDS011;3555;53.248;10.336;2022-11-25T03:06:32;24.73;;;14.30;;
7027;SDS011;3555;53.248;10.336;2022-11-25T03:08:59;31.13;;;14.13;;
7027;SDS011;3555;53.248;10.336;2022-11-25T03:11:25;24.97;;;14.13;;
7027;SDS011;3555;53.248;10.336;2022-11-25T03:14:07;26.27;;;14.40;;
7027;SDS011;3555;53.248;10.336;2022-11-25T03:16:33;23.63;;;14.37;;
7027;SDS011;3555;53.248;10.336;2022-11-25T03:19:02;21.20;;;13.07;;
7027;SDS011;3555;53.248;10.336;2022-11-25T03:21:29;23.30;;;13.23;;
7027;SDS011;3555;53.248;10.336;2022-11-25T03:23:56;19.13;;;11.87;;
7027;SDS011;3555;53.248;10.336;2022-11-25T03:26:23;17.80;;;11.57;;
7027;SDS011;3555;53.248;10.336;2022-11-25T03:28:50;21.83;;;12.60;;
7027;SDS011;3555;53.248;10.336;2022-11-25T03:31:17;17.87;;;11.57;;
7027;SDS011;3555;53.248;10.336;2022-11-25T03:33:44;19.03;;;11.60;;
7027;SDS011;3555;53.248;10.336;2022-11-25T03:36:12;22.23;;;12.97;;
7027;SDS011;3555;53.248;10.336;2022-11-25T03:38:39;26.73;;;12.90;;
7027;SDS011;3555;53.248;10.336;2022-11-25T03:41:06;19.27;;;11.60;;
7027;SDS011;3555;53.248;10.336;2022-11-25T03:43:33;23.13;;;12.57;;
7027;SDS011;3555;53.248;10.336;2022-11-25T03:45:59;19.07;;;11.00;;
7027;SDS011;3555;53.248;10.336;2022-11-25T03:48:27;25.00;;;12.13;;
7027;SDS011;3555;53.248;10.336;2022-11-25T03:50:54;20.93;;;12.33;;
7027;SDS011;3555;53.248;10.336;2022-11-25T03:53:22;21.57;;;12.67;;
7027;SDS011;3555;53.248;10.336;2022-11-25T03:55:49;23.47;;;12.77;;
7027;SDS011;3555;53.248;10.336;2022-11-25T03:58:16;24.37;;;13.20;;
7027;SDS011;3555;53.248;10.336;2022-11-25T04:00:43;25.57;;;13.37;;
7027;SDS011;3555;53.248;10.336;2022-11-25T04:03:10;24.17;;;12.37;;
7027;SDS011;3555;53.248;10.336;2022-11-25T04:05:37;23.30;;;13.17;;
7027;SDS011;3555;53.248;10.336;2022-11-25T04:08:04;24.93;;;13.20;;
7027;SDS011;3555;53.248;10.336;2022-11-25T04:10:32;24.13;;;13.00;;
7027;SDS011;3555;53.248;10.336;2022-11-25T04:12:59;24.90;;;12.53;;
7027;SDS011;3555;53.248;10.336;2022-11-25T04:15:25;23.77;;;12.60;;
7027;SDS011;3555;53.248;10.336;2022-11-25T04:17:52;23.47;;;12.97;;
7027;SDS011;3555;53.248;10.336;2022-11-25T04:20:19;19.80;;;11.77;;
7027;SDS011;3555;53.248;10.336;2022-11-25T04:22:46;25.90;;;12.87;;
7027;SDS011;3555;53.248;10.336;2022-11-25T04:25:13;22.77;;;12.83;;
7027;SDS011;3555;53.248;10.336;2022-11-25T04:27:41;24.93;;;13.70;;
7027;SDS011;3555;53.248;10.336;2022-11-25T04:30:09;19.37;;;12.10;;
7027;SDS011;3555;53.248;10.336;2022-11-25T04:32:37;23.03;;;12.57;;
7027;SDS011;3555;53.248;10.336;2022-11-25T04:35:04;22.93;;;12.90;;
7027;SDS011;3555;53.248;10.336;2022-11-25T04:37:31;22.20;;;13.00;;
7027;SDS011;3555;53.248;10.336;2022-11-25T04:39:58;23.63;;;12.60;;
7027;SDS011;3555;53.248;10.336;2022-11-25T04:42:25;22.30;;;12.27;;
7027;SDS011;3555;53.248;10.336;2022-11-25T04:45:00;19.30;;;10.87;;
7027;SDS011;3555;53.248;10.336;2022-11-25T04:47:29;21.70;;;11.80;;
7027;SDS011;3555;53.248;10.336;2022-11-25T04:49:57;21.43;;;11.50;;
7027;SDS011;3555;53.248;10.336;2022-11-25T04:52:24;21.80;;;11.90;;
7027;SDS011;3555;53.248;10.336;2022-11-25T04:54:51;21.83;;;11.30;;
7027;SDS011;3555;53.248;10.336;2022-11-25T04:57:18;22.00;;;10.37;;
7027;SDS011;3555;53.248;10.336;2022-11-25T04:59:45;22.90;;;10.87;;
7027;SDS011;3555;53.248;10.336;2022-11-25T05:02:13;15.03;;;10.43;;
7027;SDS011;3555;53.248;10.336;2022-11-25T05:04:42;21.13;;;10.50;;
7027;SDS011;3555;53.248;10.336;2022-11-25T05:07:10;18.50;;;11.03;;
7027;SDS011;3555;53.248;10.336;2022-11-25T05:09:37;21.07;;;11.00;;
7027;SDS011;3555;53.248;10.336;2022-11-25T05:12:04;18.60;;;10.07;;
7027;SDS011;3555;53.248;10.336;2022-11-25T05:14:33;21.17;;;10.27;;
7027;SDS011;3555;53.248;10.336;2022-11-25T05:17:00;19.10;;;10.27;;
7027;SDS011;3555;53.248;10.336;2022-11-25T05:19:29;17.70;;;10.47;;
7027;SDS011;3555;53.248;10.336;2022-11-25T05:21:56;19.63;;;10.33;;
7027;SDS011;3555;53.248;10.336;2022-11-25T05:24:23;18.97;;;10.33;;
7027;SDS011;3555;53.248;10.336;2022-11-25T05:26:50;19.13;;;10.87;;
7027;SDS011;3555;53.248;10.336;2022-11-25T05:29:17;25.63;;;11.30;;
7027;SDS011;3555;53.248;10.336;2022-11-25T05:31:44;23.43;;;10.87;;
7027;SDS011;3555;53.248;10.336;2022-11-25T05:34:11;22.37;;;11.47;;
7027;SDS011;3555;53.248;10.336;2022-11-25T05:36:39;25.83;;;11.33;;
7027;SDS011;3555;53.248;10.336;2022-11-25T05:39:06;23.43;;;11.97;;
7027;SDS011;3555;53.248;10.336;2022-11-25T05:41:33;22.33;;;12.33;;
7027;SDS011;3555;53.248;10.336;2022-11-25T05:44:00;21.23;;;12.03;;
7027;SDS011;3555;53.248;10.336;2022-11-25T05:46:29;26.60;;;12.80;;
7027;SDS011;3555;53.248;10.336;2022-11-25T05:48:56;20.67;;;11.73;;
7027;SDS011;3555;53.248;10.336;2022-11-25T05:51:24;25.63;;;12.63;;
7027;SDS011;3555;53.248;10.336;2022-11-25T05:53:53;21.20;;;12.17;;
7027;SDS011;3555;53.248;10.336;2022-11-25T05:56:21;22.50;;;12.97;;
7027;SDS011;3555;53.248;10.336;2022-11-25T05:58:49;20.67;;;11.57;;
7027;SDS011;3555;53.248;10.336;2022-11-25T06:01:16;20.37;;;12.27;;
7027;SDS011;3555;53.248;10.336;2022-11-25T06:03:42;20.77;;;11.30;;
7027;SDS011;3555;53.248;10.336;2022-11-25T06:06:09;19.00;;;10.93;;
7027;SDS011;3555;53.248;10.336;2022-11-25T06:08:37;17.23;;;10.63;;
7027;SDS011;3555;53.248;10.336;2022-11-25T06:11:06;18.07;;;10.97;;
7027;SDS011;3555;53.248;10.336;2022-11-25T06:13:36;19.83;;;10.23;;
7027;SDS011;3555;53.248;10.336;2022-11-25T06:16:07;16.90;;;10.43;;
7027;SDS011;3555;53.248;10.336;2022-11-25T06:18:35;18.87;;;10.80;;
7027;SDS011;3555;53.248;10.336;2022-11-25T06:21:02;21.27;;;11.23;;
7027;SDS011;3555;53.248;10.336;2022-11-25T06:23:31;22.40;;;10.70;;
7027;SDS011;3555;53.248;10.336;2022-11-25T06:26:02;18.20;;;10.97;;
7027;SDS011;3555;53.248;10.336;2022-11-25T06:28:35;17.27;;;9.60;;
7027;SDS011;3555;53.248;10.336;2022-11-25T06:31:06;20.80;;;10.43;;
7027;SDS011;3555;53.248;10.336;2022-11-25T06:33:33;20.07;;;11.07;;
7027;SDS011;3555;53.248;10.336;2022-11-25T06:36:01;21.67;;;10.67;;
7027;SDS011;3555;53.248;10.336;2022-11-25T06:38:28;20.17;;;10.93;;
7027;SDS011;3555;53.248;10.336;2022-11-25T06:40:58;19.40;;;10.30;;
7027;SDS011;3555;53.248;10.336;2022-11-25T06:43:27;22.90;;;9.70;;
7027;SDS011;3555;53.248;10.336;2022-11-25T06:45:54;23.47;;;11.17;;
7027;SDS011;3555;53.248;10.336;2022-11-25T06:48:26;19.77;;;10.73;;
7027;SDS011;3555;53.248;10.336;2022-11-25T06:50:57;20.00;;;10.77;;
7027;SDS011;3555;53.248;10.336;2022-11-25T06:53:25;23.43;;;10.33;;
7027;SDS011;3555;53.248;10.336;2022-11-25T06:56:05;21.13;;;11.20;;
7027;SDS011;3555;53.248;10.336;2022-11-25T06:58:35;18.90;;;10.37;;
7027;SDS011;3555;53.248;10.336;2022-11-25T07:01:03;18.73;;;11.77;;
7027;SDS011;3555;53.248;10.336;2022-11-25T07:03:32;25.50;;;12.40;;
7027;SDS011;3555;53.248;10.336;2022-11-25T07:05:59;20.13;;;11.47;;
7027;SDS011;3555;53.248;10.336;2022-11-25T07:08:26;22.20;;;11.20;;
7027;SDS011;3555;53.248;10.336;2022-11-25T07:10:53;19.97;;;10.50;;
7027;SDS011;3555;53.248;10.336;2022-11-25T07:13:20;23.70;;;10.93;;
7027;SDS011;3555;53.248;10.336;2022-11-25T07:15:49;19.67;;;10.57;;
7027;SDS011;3555;53.248;10.336;2022-11-25T07:18:16;22.67;;;11.00;;
7027;SDS011;3555;53.248;10.336;2022-11-25T07:20:43;20.83;;;10.93;;
7027;SDS011;3555;53.248;10.336;2022-11-25T07:23:10;22.57;;;11.80;;
7027;SDS011;3555;53.248;10.336;2022-11-25T07:25:37;28.70;;;12.83;;
7027;SDS011;3555;53.248;10.336;2022-11-25T07:28:04;21.20;;;12.13;;
7027;SDS011;3555;53.248;10.336;2022-11-25T07:30:31;29.97;;;12.73;;
7027;SDS011;3555;53.248;10.336;2022-11-25T07:32:59;28.37;;;12.73;;
7027;SDS011;3555;53.248;10.336;2022-11-25T07:35:26;22.70;;;12.30;;
7027;SDS011;3555;53.248;10.336;2022-11-25T07:37:53;23.50;;;11.97;;
7027;SDS011;3555;53.248;10.336;2022-11-25T07:40:20;24.23;;;12.73;;
7027;SDS011;3555;53.248;10.336;2022-11-25T07:42:46;27.90;;;11.33;;
7027;SDS011;3555;53.248;10.336;2022-11-25T07:45:13;25.20;;;11.33;;
7027;SDS011;3555;53.248;10.336;2022-11-25T07:47:40;23.70;;;12.40;;
7027;SDS011;3555;53.248;10.336;2022-11-25T07:50:09;24.60;;;12.33;;
7027;SDS011;3555;53.248;10.336;2022-11-25T07:52:36;19.70;;;11.20;;
7027;SDS011;3555;53.248;10.336;2022-11-25T07:55:04;21.70;;;10.67;;
7027;SDS011;3555;53.248;10.336;2022-11-25T07:57:31;22.40;;;11.27;;
7027;SDS011;3555;53.248;10.336;2022-11-25T07:59:58;14.77;;;9.57;;
7027;SDS011;3555;53.248;10.336;2022-11-25T08:02:25;18.17;;;9.57;;
7027;SDS011;3555;53.248;10.336;2022-11-25T08:04:52;16.87;;;9.63;;
7027;SDS011;3555;53.248;10.336;2022-11-25T08:07:21;16.57;;;9.87;;
7027;SDS011;3555;53.248;10.336;2022-11-25T08:09:47;15.93;;;10.00;;
7027;SDS011;3555;53.248;10.336;2022-11-25T08:12:15;21.87;;;10.27;;
7027;SDS011;3555;53.248;10.336;2022-11-25T08:14:42;25.77;;;12.13;;
7027;SDS011;3555;53.248;10.336;2022-11-25T08:17:09;20.23;;;10.13;;
7027;SDS011;3555;53.248;10.336;2022-11-25T08:19:36;16.07;;;9.40;;
7027;SDS011;3555;53.248;10.336;2022-11-25T08:22:04;21.17;;;10.07;;
7027;SDS011;3555;53.248;10.336;2022-11-25T08:24:33;20.87;;;9.93;;
7027;SDS011;3555;53.248;10.336;2022-11-25T08:26:59;18.43;;;9.77;;
7027;SDS011;3555;53.248;10.336;2022-11-25T08:29:26;17.13;;;9.20;;
7027;SDS011;3555;53.248;10.336;2022-11-25T08:31:53;22.17;;;10.27;;
7027;SDS011;3555;53.248;10.336;2022-11-25T08:34:21;21.53;;;10.23;;
7027;SDS011;3555;53.248;10.336;2022-11-25T08:36:49;20.83;;;10.57;;
7027;SDS011;3555;53.248;10.336;2022-11-25T08:39:17;23.27;;;11.07;;
7027;SDS011;3555;53.248;10.336;2022-11-25T08:41:46;15.10;;;9.57;;
7027;SDS011;3555;53.248;10.336;2022-11-25T08:44:13;22.90;;;10.20;;
7027;SDS011;3555;53.248;10.336;2022-11-25T08:46:41;21.07;;;9.43;;
7027;SDS011;3555;53.248;10.336;2022-11-25T08:49:10;16.20;;;8.67;;
7027;SDS011;3555;53.248;10.336;2022-11-25T08:51:38;17.93;;;8.23;;
7027;SDS011;3555;53.248;10.336;2022-11-25T08:54:05;21.30;;;8.27;;
7027;SDS011;3555;53.248;10.336;2022-11-25T08:56:33;17.33;;;8.70;;
7027;SDS011;3555;53.248;10.336;2022-11-25T08:59:01;20.17;;;9.33;;
7027;SDS011;3555;53.248;10.336;2022-11-25T09:01:29;19.47;;;9.40;;
7027;SDS011;3555;53.248;10.336;2022-11-25T09:03:56;18.30;;;9.50;;
7027;SDS011;3555;53.248;10.336;2022-11-25T09:06:24;19.13;;;8.43;;
7027;SDS011;3555;53.248;10.336;2022-11-25T09:08:53;15.47;;;8.30;;
7027;SDS011;3555;53.248;10.336;2022-11-25T09:11:22;13.77;;;8.63;;
7027;SDS011;3555;53.248;10.336;2022-11-25T09:13:49;15.63;;;9.00;;
7027;SDS011;3555;53.248;10.336;2022-11-25T09:16:18;14.53;;;8.17;;
7027;SDS011;3555;53.248;10.336;2022-11-25T09:18:45;16.00;;;8.17;;
7027;SDS011;3555;53.248;10.336;2022-11-25T09:21:14;16.57;;;8.70;;
7027;SDS011;3555;53.248;10.336;2022-11-25T09:23:42;19.97;;;9.13;;
7027;SDS011;3555;53.248;10.336;2022-11-25T09:26:13;20.13;;;9.37;;
7027;SDS011;3555;53.248;10.336;2022-11-25T09:28:46;16.13;;;7.97;;
7027;SDS011;3555;53.248;10.336;2022-11-25T09:31:13;17.17;;;9.13;;
7027;SDS011;3555;53.248;10.336;2022-11-25T09:33:42;17.63;;;9.40;;
7027;SDS011;3555;53.248;10.336;2022-11-25T09:36:10;18.83;;;8.60;;
7027;SDS011;3555;53.248;10.336;2022-11-25T09:38:38;22.47;;;8.97;;
7027;SDS011;3555;53.248;10.336;2022-11-25T09:41:09;19.13;;;8.73;;
7027;SDS011;3555;53.248;10.336;2022-11-25T09:44:08;18.77;;;8.73;;
7027;SDS011;3555;53.248;10.336;2022-11-25T09:47:07;16.17;;;7.87;;
7027;SDS011;3555;53.248;10.336;2022-11-25T09:49:46;18.07;;;8.43;;
7027;SDS011;3555;53.248;10.336;2022-11-25T09:52:29;15.07;;;7.97;;
7027;SDS011;3555;53.248;10.336;2022-11-25T09:55:03;19.23;;;8.43;;
7027;SDS011;3555;53.248;10.336;2022-11-25T09:57:35;16.93;;;7.70;;
7027;SDS011;3555;53.248;10.336;2022-11-25T10:00:16;15.17;;;8.27;;
7027;SDS011;3555;53.248;10.336;2022-11-25T10:02:46;20.57;;;8.60;;
7027;SDS011;3555;53.248;10.336;2022-11-25T10:05:22;17.70;;;8.03;;
7027;SDS011;3555;53.248;10.336;2022-11-25T10:07:54;20.40;;;8.10;;
7027;SDS011;3555;53.248;10.336;2022-11-25T10:10:25;15.00;;;8.13;;
7027;SDS011;3555;53.248;10.336;2022-11-25T10:12:55;18.10;;;8.07;;
7027;SDS011;3555;53.248;10.336;2022-11-25T10:15:24;25.83;;;8.00;;
7027;SDS011;3555;53.248;10.336;2022-11-25T10:17:56;16.37;;;7.27;;
7027;SDS011;3555;53.248;10.336;2022-11-25T10:20:28;15.30;;;7.23;;
7027;SDS011;3555;53.248;10.336;2022-11-25T10:22:59;17.37;;;7.93;;
7027;SDS011;3555;53.248;10.336;2022-11-25T10:25:29;18.20;;;7.10;;
7027;SDS011;3555;53.248;10.336;2022-11-25T10:27:58;17.10;;;6.70;;
7027;SDS011;3555;53.248;10.336;2022-11-25T10:30:29;16.47;;;8.17;;
7027;SDS011;3555;53.248;10.336;2022-11-25T10:33:02;14.30;;;6.67;;
7027;SDS011;3555;53.248;10.336;2022-11-25T10:35:40;16.80;;;6.83;;
7027;SDS011;3555;53.248;10.336;2022-11-25T10:38:12;15.93;;;7.30;;
7027;SDS011;3555;53.248;10.336;2022-11-25T10:40:43;13.70;;;6.67;;
7027;SDS011;3555;53.248;10.336;2022-11-25T10:43:13;18.87;;;7.50;;
7027;SDS011;3555;53.248;10.336;2022-11-25T10:45:44;12.10;;;6.20;;
7027;SDS011;3555;53.248;10.336;2022-11-25T10:48:21;16.13;;;6.50;;
7027;SDS011;3555;53.248;10.336;2022-11-25T10:51:05;17.20;;;6.90;;
7027;SDS011;3555;53.248;10.336;2022-11-25T10:53:45;14.20;;;6.73;;
7027;SDS011;3555;53.248;10.336;2022-11-25T10:56:41;13.73;;;7.33;;
7027;SDS011;3555;53.248;10.336;2022-11-25T10:59:13;18.43;;;7.20;;
7027;SDS011;3555;53.248;10.336;2022-11-25T11:01:47;17.53;;;7.00;;
7027;SDS011;3555;53.248;10.336;2022-11-25T11:04:14;18.63;;;7.77;;
7027;SDS011;3555;53.248;10.336;2022-11-25T11:06:45;11.67;;;6.70;;
7027;SDS011;3555;53.248;10.336;2022-11-25T11:09:32;19.00;;;7.53;;
7027;SDS011;3555;53.248;10.336;2022-11-25T11:12:06;20.37;;;6.80;;
7027;SDS011;3555;53.248;10.336;2022-11-25T11:14:39;12.10;;;6.40;;
7027;SDS011;3555;53.248;10.336;2022-11-25T11:17:08;16.10;;;5.73;;
7027;SDS011;3555;53.248;10.336;2022-11-25T11:19:58;13.50;;;6.50;;
7027;SDS011;3555;53.248;10.336;2022-11-25T11:22:28;14.83;;;6.50;;
7027;SDS011;3555;53.248;10.336;2022-11-25T11:25:07;22.93;;;6.83;;
7027;SDS011;3555;53.248;10.336;2022-11-25T11:27:47;12.63;;;6.00;;
7027;SDS011;3555;53.248;10.336;2022-11-25T11:30:15;14.87;;;6.17;;
7027;SDS011;3555;53.248;10.336;2022-11-25T11:32:44;12.53;;;5.70;;
7027;SDS011;3555;53.248;10.336;2022-11-25T11:35:22;15.40;;;6.07;;
7027;SDS011;3555;53.248;10.336;2022-11-25T11:37:57;15.20;;;5.93;;
7027;SDS011;3555;53.248;10.336;2022-11-25T11:40:34;14.03;;;6.20;;
7027;SDS011;3555;53.248;10.336;2022-11-25T11:43:13;14.80;;;5.70;;
7027;SDS011;3555;53.248;10.336;2022-11-25T11:46:04;15.33;;;5.47;;
7027;SDS011;3555;53.248;10.336;2022-11-25T11:48:44;14.30;;;6.03;;
7027;SDS011;3555;53.248;10.336;2022-11-25T11:51:21;19.67;;;6.83;;
7027;SDS011;3555;53.248;10.336;2022-11-25T11:53:58;19.87;;;6.20;;
7027;SDS011;3555;53.248;10.336;2022-11-25T11:56:34;19.00;;;6.50;;
7027;SDS011;3555;53.248;10.336;2022-11-25T11:59:07;17.97;;;7.50;;
7027;SDS011;3555;53.248;10.336;2022-11-25T12:01:56;14.83;;;6.30;;
7027;SDS011;3555;53.248;10.336;2022-11-25T12:04:38;15.50;;;6.03;;
7027;SDS011;3555;53.248;10.336;2022-11-25T12:07:10;13.93;;;5.37;;
7027;SDS011;3555;53.248;10.336;2022-11-25T12:09:46;11.37;;;4.93;;
7027;SDS011;3555;53.248;10.336;2022-11-25T12:12:18;19.63;;;5.53;;
7027;SDS011;3555;53.248;10.336;2022-11-25T12:14:54;20.30;;;6.60;;
7027;SDS011;3555;53.248;10.336;2022-11-25T12:17:27;11.40;;;5.90;;
7027;SDS011;3555;53.248;10.336;2022-11-25T12:20:13;16.83;;;6.43;;
7027;SDS011;3555;53.248;10.336;2022-11-25T12:22:44;16.90;;;6.27;;
7027;SDS011;3555;53.248;10.336;2022-11-25T12:25:18;20.70;;;6.57;;
7027;SDS011;3555;53.248;10.336;2022-11-25T12:27:49;17.30;;;6.93;;
7027;SDS011;3555;53.248;10.336;2022-11-25T12:30:22;12.53;;;7.13;;
7027;SDS011;3555;53.248;10.336;2022-11-25T12:32:58;14.67;;;6.93;;
7027;SDS011;3555;53.248;10.336;2022-11-25T12:35:47;15.03;;;6.73;;
7027;SDS011;3555;53.248;10.336;2022-11-25T12:38:20;18.23;;;6.17;;
7027;SDS011;3555;53.248;10.336;2022-11-25T12:41:00;10.53;;;5.27;;
7027;SDS011;3555;53.248;10.336;2022-11-25T12:43:37;16.10;;;6.57;;
7027;SDS011;3555;53.248;10.336;2022-11-25T12:46:12;12.53;;;5.00;;
7027;SDS011;3555;53.248;10.336;2022-11-25T12:48:44;18.43;;;6.93;;
7027;SDS011;3555;53.248;10.336;2022-11-25T12:51:15;13.50;;;5.40;;
7027;SDS011;3555;53.248;10.336;2022-11-25T12:53:53;17.00;;;5.83;;
7027;SDS011;3555;53.248;10.336;2022-11-25T12:56:40;23.20;;;8.13;;
7027;SDS011;3555;53.248;10.336;2022-11-25T12:59:23;15.13;;;6.23;;
7027;SDS011;3555;53.248;10.336;2022-11-25T13:02:11;21.27;;;6.43;;
7027;SDS011;3555;53.248;10.336;2022-11-25T13:08:22;14.33;;;5.73;;
7027;SDS011;3555;53.248;10.336;2022-11-25T13:11:03;12.60;;;4.73;;
7027;SDS011;3555;53.248;10.336;2022-11-25T13:13:46;14.60;;;5.33;;
7027;SDS011;3555;53.248;10.336;2022-11-25T13:16:18;11.13;;;5.13;;
7027;SDS011;3555;53.248;10.336;2022-11-25T13:18:45;19.73;;;6.33;;
7027;SDS011;3555;53.248;10.336;2022-11-25T13:21:13;13.20;;;5.60;;
7027;SDS011;3555;53.248;10.336;2022-11-25T13:23:45;20.57;;;7.43;;
7027;SDS011;3555;53.248;10.336;2022-11-25T13:32:29;18.43;;;7.13;;
7027;SDS011;3555;53.248;10.336;2022-11-25T13:38:36;16.13;;;6.90;;
7027;SDS011;3555;53.248;10.336;2022-11-25T13:41:23;13.07;;;5.70;;
7027;SDS011;3555;53.248;10.336;2022-11-25T13:43:58;12.40;;;5.33;;
7027;SDS011;3555;53.248;10.336;2022-11-25T13:46:33;12.20;;;5.10;;
7027;SDS011;3555;53.248;10.336;2022-11-25T13:49:06;14.83;;;6.40;;
7027;SDS011;3555;53.248;10.336;2022-11-25T13:51:48;10.77;;;6.40;;
7027;SDS011;3555;53.248;10.336;2022-11-25T13:54:16;17.57;;;6.07;;
7027;SDS011;3555;53.248;10.336;2022-11-25T13:56:57;13.80;;;5.77;;
7027;SDS011;3555;53.248;10.336;2022-11-25T13:59:47;19.20;;;5.90;;
7027;SDS011;3555;53.248;10.336;2022-11-25T14:02:27;15.67;;;6.33;;
7027;SDS011;3555;53.248;10.336;2022-11-25T14:05:03;15.03;;;6.37;;
7027;SDS011;3555;53.248;10.336;2022-11-25T14:07:44;16.17;;;6.60;;
7027;SDS011;3555;53.248;10.336;2022-11-25T14:10:20;13.67;;;5.67;;
7027;SDS011;3555;53.248;10.336;2022-11-25T14:16:07;14.10;;;6.17;;
7027;SDS011;3555;53.248;10.336;2022-11-25T14:18:46;12.83;;;5.90;;
7027;SDS011;3555;53.248;10.336;2022-11-25T14:21:40;16.70;;;6.90;;
7027;SDS011;3555;53.248;10.336;2022-11-25T14:24:33;17.47;;;6.47;;
7027;SDS011;3555;53.248;10.336;2022-11-25T14:27:04;15.37;;;6.53;;
7027;SDS011;3555;53.248;10.336;2022-11-25T14:29:39;15.33;;;6.77;;
7027;SDS011;3555;53.248;10.336;2022-11-25T14:32:12;13.87;;;6.67;;
7027;SDS011;3555;53.248;10.336;2022-11-25T14:34:44;15.43;;;7.17;;
7027;SDS011;3555;53.248;10.336;2022-11-25T14:37:15;14.83;;;7.17;;
7027;SDS011;3555;53.248;10.336;2022-11-25T14:39:48;16.17;;;7.20;;
7027;SDS011;3555;53.248;10.336;2022-11-25T14:42:20;22.83;;;10.00;;
7027;SDS011;3555;53.248;10.336;2022-11-25T14:44:50;24.27;;;11.20;;
7027;SDS011;3555;53.248;10.336;2022-11-25T14:47:20;17.90;;;8.33;;
7027;SDS011;3555;53.248;10.336;2022-11-25T14:49:48;14.83;;;8.40;;
7027;SDS011;3555;53.248;10.336;2022-11-25T14:52:19;12.53;;;7.00;;
7027;SDS011;3555;53.248;10.336;2022-11-25T14:54:48;19.03;;;7.83;;
7027;SDS011;3555;53.248;10.336;2022-11-25T14:57:20;12.97;;;7.33;;
7027;SDS011;3555;53.248;10.336;2022-11-25T14:59:49;21.00;;;8.27;;
7027;SDS011;3555;53.248;10.336;2022-11-25T15:02:24;14.43;;;8.17;;
7027;SDS011;3555;53.248;10.336;2022-11-25T15:04:52;15.97;;;9.20;;
7027;SDS011;3555;53.248;10.336;2022-11-25T15:07:28;20.10;;;9.77;;
7027;SDS011;3555;53.248;10.336;2022-11-25T15:09:55;21.17;;;9.93;;
7027;SDS011;3555;53.248;10.336;2022-11-25T15:12:22;20.93;;;8.90;;
7027;SDS011;3555;53.248;10.336;2022-11-25T15:14:54;23.23;;;9.80;;
7027;SDS011;3555;53.248;10.336;2022-11-25T15:17:25;18.47;;;9.57;;